Search for airport 
image banner adimage banner adimage banner ad
image banner ad

44L - Wilshire Area

Located in Los Angeles, United States

ICAO - 44L, IATA -

Data provided by Airmate  

General information

Coordinates: N34°2'50" W118°20'34"
Elevation is 150 feet MSL.
Magnetic variation is 14° East
View others Airports in California

Operational data

Special qualification required
Current time UTC:
Current local time:
Weather at : KSMO - Santa Monica Muni ( 11 km )
METAR: KSMO 141051Z AUTO 00000KT 10SM CLR 16/13 A2990 RMK AO2 SLP126 T01610133
TAF: KSMO 140923Z 1409/1506 VRB03KT P6SM SKC FM141700 24005KT P6SM SKC FM141900 24010KT P6SM SKC FM150300 VRB03KT P6SM SKC
View NOTAMs / SUP AIP / TFR affecting this airport [VIEW]
Communications frequencies: [VIEW]

Runways:

Airport contact information

Address: Los Angeles United States

Satellite view of 44L